sensor_id;sensor_type;location;lat;lon;timestamp;P1;durP1;ratioP1;P2;durP2;ratioP2
52124;SDS011;38119;52.710;6.398;2023-01-01T00:02:13;32.95;;;22.10;;
52124;SDS011;38119;52.710;6.398;2023-01-01T00:04:38;28.98;;;19.30;;
52124;SDS011;38119;52.710;6.398;2023-01-01T00:07:04;30.80;;;18.92;;
52124;SDS011;38119;52.710;6.398;2023-01-01T00:09:29;30.08;;;15.85;;
52124;SDS011;38119;52.710;6.398;2023-01-01T00:12:13;32.63;;;15.30;;
52124;SDS011;38119;52.710;6.398;2023-01-01T00:14:39;25.92;;;14.45;;
52124;SDS011;38119;52.710;6.398;2023-01-01T00:17:07;25.50;;;14.05;;
52124;SDS011;38119;52.710;6.398;2023-01-01T00:19:33;24.02;;;14.30;;
52124;SDS011;38119;52.710;6.398;2023-01-01T00:21:59;28.83;;;12.48;;
52124;SDS011;38119;52.710;6.398;2023-01-01T00:24:24;22.75;;;13.18;;
52124;SDS011;38119;52.710;6.398;2023-01-01T00:26:50;22.67;;;11.10;;
52124;SDS011;38119;52.710;6.398;2023-01-01T00:29:15;22.40;;;11.40;;
52124;SDS011;38119;52.710;6.398;2023-01-01T00:31:41;28.20;;;12.20;;
52124;SDS011;38119;52.710;6.398;2023-01-01T00:34:08;20.70;;;11.98;;
52124;SDS011;38119;52.710;6.398;2023-01-01T00:36:34;23.27;;;11.93;;
52124;SDS011;38119;52.710;6.398;2023-01-01T00:39:00;20.20;;;11.50;;
52124;SDS011;38119;52.710;6.398;2023-01-01T00:41:27;25.85;;;12.05;;
52124;SDS011;38119;52.710;6.398;2023-01-01T00:43:52;23.08;;;12.45;;
52124;SDS011;38119;52.710;6.398;2023-01-01T00:46:18;21.70;;;11.82;;
52124;SDS011;38119;52.710;6.398;2023-01-01T00:48:43;27.17;;;12.35;;
52124;SDS011;38119;52.710;6.398;2023-01-01T00:51:09;27.35;;;13.38;;
52124;SDS011;38119;52.710;6.398;2023-01-01T00:53:35;23.65;;;12.68;;
52124;SDS011;38119;52.710;6.398;2023-01-01T00:56:01;25.88;;;13.35;;
52124;SDS011;38119;52.710;6.398;2023-01-01T00:58:28;26.92;;;12.98;;
52124;SDS011;38119;52.710;6.398;2023-01-01T01:00:53;32.53;;;14.57;;
52124;SDS011;38119;52.710;6.398;2023-01-01T01:03:19;25.20;;;14.07;;
52124;SDS011;38119;52.710;6.398;2023-01-01T01:05:58;29.70;;;14.30;;
52124;SDS011;38119;52.710;6.398;2023-01-01T01:08:27;25.17;;;14.55;;
52124;SDS011;38119;52.710;6.398;2023-01-01T01:10:54;27.15;;;14.45;;
52124;SDS011;38119;52.710;6.398;2023-01-01T01:13:21;24.15;;;14.27;;
52124;SDS011;38119;52.710;6.398;2023-01-01T01:15:47;24.55;;;14.02;;
52124;SDS011;38119;52.710;6.398;2023-01-01T01:18:13;25.88;;;14.32;;
52124;SDS011;38119;52.710;6.398;2023-01-01T01:20:38;25.35;;;13.93;;
52124;SDS011;38119;52.710;6.398;2023-01-01T01:23:04;33.10;;;15.07;;
52124;SDS011;38119;52.710;6.398;2023-01-01T01:25:30;26.95;;;15.18;;
52124;SDS011;38119;52.710;6.398;2023-01-01T01:27:55;29.38;;;15.30;;
52124;SDS011;38119;52.710;6.398;2023-01-01T01:30:21;26.60;;;14.15;;
52124;SDS011;38119;52.710;6.398;2023-01-01T01:32:47;24.25;;;13.65;;
52124;SDS011;38119;52.710;6.398;2023-01-01T01:35:12;25.88;;;14.25;;
52124;SDS011;38119;52.710;6.398;2023-01-01T01:37:38;29.38;;;13.30;;
52124;SDS011;38119;52.710;6.398;2023-01-01T01:40:03;30.50;;;13.77;;
52124;SDS011;38119;52.710;6.398;2023-01-01T01:42:30;24.85;;;13.65;;
52124;SDS011;38119;52.710;6.398;2023-01-01T01:44:57;24.10;;;13.20;;
52124;SDS011;38119;52.710;6.398;2023-01-01T01:47:33;26.27;;;13.93;;
52124;SDS011;38119;52.710;6.398;2023-01-01T01:50:21;23.95;;;13.70;;
52124;SDS011;38119;52.710;6.398;2023-01-01T01:55:29;31.83;;;14.50;;
52124;SDS011;38119;52.710;6.398;2023-01-01T01:57:56;26.45;;;14.55;;
52124;SDS011;38119;52.710;6.398;2023-01-01T02:00:22;30.80;;;14.80;;
52124;SDS011;38119;52.710;6.398;2023-01-01T02:02:52;26.85;;;13.95;;
52124;SDS011;38119;52.710;6.398;2023-01-01T02:05:25;30.40;;;15.13;;
52124;SDS011;38119;52.710;6.398;2023-01-01T02:07:52;25.13;;;13.48;;
52124;SDS011;38119;52.710;6.398;2023-01-01T02:10:19;26.63;;;13.77;;
52124;SDS011;38119;52.710;6.398;2023-01-01T02:12:45;26.95;;;13.48;;
52124;SDS011;38119;52.710;6.398;2023-01-01T02:15:11;26.02;;;11.98;;
52124;SDS011;38119;52.710;6.398;2023-01-01T02:17:39;26.10;;;11.32;;
52124;SDS011;38119;52.710;6.398;2023-01-01T02:20:33;23.73;;;11.93;;
52124;SDS011;38119;52.710;6.398;2023-01-01T02:23:27;21.23;;;10.93;;
52124;SDS011;38119;52.710;6.398;2023-01-01T02:32:12;20.50;;;9.82;;
52124;SDS011;38119;52.710;6.398;2023-01-01T02:34:46;21.52;;;9.00;;
52124;SDS011;38119;52.710;6.398;2023-01-01T02:37:23;21.33;;;9.30;;
52124;SDS011;38119;52.710;6.398;2023-01-01T02:39:53;19.02;;;9.60;;
52124;SDS011;38119;52.710;6.398;2023-01-01T02:42:23;18.73;;;8.73;;
52124;SDS011;38119;52.710;6.398;2023-01-01T02:44:51;18.45;;;7.35;;
52124;SDS011;38119;52.710;6.398;2023-01-01T02:47:20;14.68;;;7.38;;
52124;SDS011;38119;52.710;6.398;2023-01-01T02:49:48;14.63;;;6.20;;
52124;SDS011;38119;52.710;6.398;2023-01-01T02:52:19;16.02;;;5.68;;
52124;SDS011;38119;52.710;6.398;2023-01-01T02:54:53;11.07;;;5.55;;
52124;SDS011;38119;52.710;6.398;2023-01-01T03:00:13;13.60;;;5.25;;
52124;SDS011;38119;52.710;6.398;2023-01-01T03:03:15;10.48;;;4.50;;
52124;SDS011;38119;52.710;6.398;2023-01-01T03:05:54;16.35;;;4.60;;
52124;SDS011;38119;52.710;6.398;2023-01-01T03:11:24;12.05;;;4.43;;
52124;SDS011;38119;52.710;6.398;2023-01-01T03:21:45;11.57;;;3.72;;
52124;SDS011;38119;52.710;6.398;2023-01-01T03:24:15;10.75;;;3.90;;
52124;SDS011;38119;52.710;6.398;2023-01-01T03:26:46;12.18;;;4.25;;
52124;SDS011;38119;52.710;6.398;2023-01-01T03:29:16;7.90;;;4.07;;
52124;SDS011;38119;52.710;6.398;2023-01-01T03:31:45;8.57;;;3.33;;
52124;SDS011;38119;52.710;6.398;2023-01-01T03:34:16;11.25;;;3.78;;
52124;SDS011;38119;52.710;6.398;2023-01-01T03:36:47;7.53;;;3.20;;
52124;SDS011;38119;52.710;6.398;2023-01-01T03:39:18;9.20;;;2.88;;
52124;SDS011;38119;52.710;6.398;2023-01-01T03:44:54;12.55;;;3.78;;
52124;SDS011;38119;52.710;6.398;2023-01-01T03:47:25;7.78;;;3.05;;
52124;SDS011;38119;52.710;6.398;2023-01-01T03:49:52;10.20;;;3.78;;
52124;SDS011;38119;52.710;6.398;2023-01-01T03:52:25;10.27;;;2.88;;
52124;SDS011;38119;52.710;6.398;2023-01-01T03:55:03;6.72;;;3.10;;
52124;SDS011;38119;52.710;6.398;2023-01-01T03:57:39;9.43;;;3.05;;
52124;SDS011;38119;52.710;6.398;2023-01-01T04:00:14;10.77;;;3.28;;
52124;SDS011;38119;52.710;6.398;2023-01-01T04:05:23;9.95;;;2.78;;
52124;SDS011;38119;52.710;6.398;2023-01-01T04:07:50;11.60;;;2.88;;
52124;SDS011;38119;52.710;6.398;2023-01-01T04:13:21;7.38;;;2.85;;
52124;SDS011;38119;52.710;6.398;2023-01-01T04:15:47;8.70;;;2.80;;
52124;SDS011;38119;52.710;6.398;2023-01-01T04:18:12;9.90;;;3.05;;
52124;SDS011;38119;52.710;6.398;2023-01-01T04:20:38;7.57;;;2.70;;
52124;SDS011;38119;52.710;6.398;2023-01-01T04:23:04;10.63;;;2.72;;
52124;SDS011;38119;52.710;6.398;2023-01-01T04:25:29;13.20;;;3.05;;
52124;SDS011;38119;52.710;6.398;2023-01-01T04:27:55;12.05;;;2.95;;
52124;SDS011;38119;52.710;6.398;2023-01-01T04:30:28;12.40;;;3.28;;
52124;SDS011;38119;52.710;6.398;2023-01-01T04:32:54;11.15;;;2.97;;
52124;SDS011;38119;52.710;6.398;2023-01-01T04:35:20;8.02;;;2.63;;
52124;SDS011;38119;52.710;6.398;2023-01-01T04:37:45;8.20;;;2.72;;
52124;SDS011;38119;52.710;6.398;2023-01-01T04:40:11;10.20;;;3.17;;
52124;SDS011;38119;52.710;6.398;2023-01-01T04:42:38;11.13;;;2.70;;
52124;SDS011;38119;52.710;6.398;2023-01-01T04:45:03;6.85;;;2.00;;
52124;SDS011;38119;52.710;6.398;2023-01-01T04:47:29;13.27;;;2.20;;
52124;SDS011;38119;52.710;6.398;2023-01-01T04:49:55;5.20;;;1.92;;
52124;SDS011;38119;52.710;6.398;2023-01-01T04:52:21;12.55;;;2.40;;
52124;SDS011;38119;52.710;6.398;2023-01-01T04:54:46;8.40;;;2.60;;
52124;SDS011;38119;52.710;6.398;2023-01-01T04:57:12;6.55;;;2.10;;
52124;SDS011;38119;52.710;6.398;2023-01-01T04:59:38;9.10;;;2.45;;
52124;SDS011;38119;52.710;6.398;2023-01-01T05:02:04;8.07;;;2.35;;
52124;SDS011;38119;52.710;6.398;2023-01-01T05:04:29;8.57;;;2.42;;
52124;SDS011;38119;52.710;6.398;2023-01-01T05:06:55;6.53;;;2.33;;
52124;SDS011;38119;52.710;6.398;2023-01-01T05:09:20;5.53;;;2.22;;
52124;SDS011;38119;52.710;6.398;2023-01-01T05:11:46;6.28;;;2.58;;
52124;SDS011;38119;52.710;6.398;2023-01-01T05:14:12;7.40;;;2.25;;
52124;SDS011;38119;52.710;6.398;2023-01-01T05:16:38;10.00;;;2.20;;
52124;SDS011;38119;52.710;6.398;2023-01-01T05:19:05;8.02;;;1.80;;
52124;SDS011;38119;52.710;6.398;2023-01-01T05:21:33;5.45;;;1.67;;
52124;SDS011;38119;52.710;6.398;2023-01-01T05:24:01;6.63;;;1.98;;
52124;SDS011;38119;52.710;6.398;2023-01-01T05:26:30;5.15;;;1.77;;
52124;SDS011;38119;52.710;6.398;2023-01-01T05:28:57;6.75;;;1.90;;
52124;SDS011;38119;52.710;6.398;2023-01-01T05:31:25;8.15;;;1.52;;
52124;SDS011;38119;52.710;6.398;2023-01-01T05:33:52;5.55;;;1.98;;
52124;SDS011;38119;52.710;6.398;2023-01-01T05:36:28;3.55;;;1.50;;
52124;SDS011;38119;52.710;6.398;2023-01-01T05:38:56;4.75;;;1.50;;
52124;SDS011;38119;52.710;6.398;2023-01-01T05:41:22;4.78;;;1.60;;
52124;SDS011;38119;52.710;6.398;2023-01-01T05:43:48;5.72;;;1.75;;
52124;SDS011;38119;52.710;6.398;2023-01-01T05:46:16;7.45;;;2.17;;
52124;SDS011;38119;52.710;6.398;2023-01-01T05:48:43;4.72;;;1.60;;
52124;SDS011;38119;52.710;6.398;2023-01-01T05:51:11;6.63;;;1.50;;
52124;SDS011;38119;52.710;6.398;2023-01-01T05:53:37;9.50;;;2.20;;
52124;SDS011;38119;52.710;6.398;2023-01-01T05:56:03;4.65;;;1.40;;
52124;SDS011;38119;52.710;6.398;2023-01-01T05:58:31;6.22;;;1.90;;
52124;SDS011;38119;52.710;6.398;2023-01-01T06:01:04;4.78;;;1.40;;
52124;SDS011;38119;52.710;6.398;2023-01-01T06:03:34;7.38;;;1.98;;
52124;SDS011;38119;52.710;6.398;2023-01-01T06:06:08;5.13;;;1.50;;
52124;SDS011;38119;52.710;6.398;2023-01-01T06:08:36;4.85;;;1.63;;
52124;SDS011;38119;52.710;6.398;2023-01-01T06:11:03;6.55;;;1.48;;
52124;SDS011;38119;52.710;6.398;2023-01-01T06:13:30;6.60;;;2.03;;
52124;SDS011;38119;52.710;6.398;2023-01-01T06:15:57;6.20;;;1.98;;
52124;SDS011;38119;52.710;6.398;2023-01-01T06:18:24;9.15;;;1.85;;
52124;SDS011;38119;52.710;6.398;2023-01-01T06:20:50;5.68;;;1.55;;
52124;SDS011;38119;52.710;6.398;2023-01-01T06:23:16;7.32;;;1.60;;
52124;SDS011;38119;52.710;6.398;2023-01-01T06:25:42;6.05;;;1.70;;
52124;SDS011;38119;52.710;6.398;2023-01-01T06:28:08;8.52;;;1.85;;
52124;SDS011;38119;52.710;6.398;2023-01-01T06:30:34;8.40;;;2.03;;
52124;SDS011;38119;52.710;6.398;2023-01-01T06:33:00;6.30;;;1.85;;
52124;SDS011;38119;52.710;6.398;2023-01-01T06:35:26;8.15;;;2.10;;
52124;SDS011;38119;52.710;6.398;2023-01-01T06:37:52;8.23;;;2.00;;
52124;SDS011;38119;52.710;6.398;2023-01-01T06:40:17;8.98;;;2.05;;
52124;SDS011;38119;52.710;6.398;2023-01-01T06:42:43;4.47;;;1.65;;
52124;SDS011;38119;52.710;6.398;2023-01-01T06:45:08;4.78;;;2.00;;
52124;SDS011;38119;52.710;6.398;2023-01-01T06:47:34;6.15;;;1.80;;
52124;SDS011;38119;52.710;6.398;2023-01-01T06:50:01;9.48;;;2.42;;
52124;SDS011;38119;52.710;6.398;2023-01-01T06:52:28;8.27;;;1.77;;
52124;SDS011;38119;52.710;6.398;2023-01-01T06:54:54;7.45;;;2.15;;
52124;SDS011;38119;52.710;6.398;2023-01-01T06:57:19;6.45;;;1.77;;
52124;SDS011;38119;52.710;6.398;2023-01-01T06:59:45;7.57;;;1.90;;
52124;SDS011;38119;52.710;6.398;2023-01-01T07:02:10;7.15;;;2.00;;
52124;SDS011;38119;52.710;6.398;2023-01-01T07:04:36;9.07;;;1.95;;
52124;SDS011;38119;52.710;6.398;2023-01-01T07:07:02;8.70;;;1.85;;
52124;SDS011;38119;52.710;6.398;2023-01-01T07:09:28;9.02;;;1.88;;
52124;SDS011;38119;52.710;6.398;2023-01-01T07:11:54;4.47;;;1.65;;
52124;SDS011;38119;52.710;6.398;2023-01-01T07:14:20;5.10;;;1.55;;
52124;SDS011;38119;52.710;6.398;2023-01-01T07:16:45;8.55;;;2.03;;
52124;SDS011;38119;52.710;6.398;2023-01-01T07:19:11;6.10;;;1.80;;
52124;SDS011;38119;52.710;6.398;2023-01-01T07:21:43;8.18;;;1.90;;
52124;SDS011;38119;52.710;6.398;2023-01-01T07:24:13;9.30;;;2.03;;
52124;SDS011;38119;52.710;6.398;2023-01-01T07:26:40;6.35;;;1.60;;
52124;SDS011;38119;52.710;6.398;2023-01-01T07:29:06;9.25;;;2.00;;
52124;SDS011;38119;52.710;6.398;2023-01-01T07:31:34;6.75;;;1.88;;
52124;SDS011;38119;52.710;6.398;2023-01-01T07:34:01;7.97;;;1.98;;
52124;SDS011;38119;52.710;6.398;2023-01-01T07:36:27;7.93;;;1.70;;
52124;SDS011;38119;52.710;6.398;2023-01-01T07:38:53;5.75;;;1.63;;
52124;SDS011;38119;52.710;6.398;2023-01-01T07:41:18;5.18;;;1.77;;
52124;SDS011;38119;52.710;6.398;2023-01-01T07:43:44;6.43;;;1.80;;
52124;SDS011;38119;52.710;6.398;2023-01-01T07:46:11;10.10;;;2.22;;
52124;SDS011;38119;52.710;6.398;2023-01-01T07:48:37;7.40;;;1.92;;
52124;SDS011;38119;52.710;6.398;2023-01-01T07:51:03;10.35;;;1.70;;
52124;SDS011;38119;52.710;6.398;2023-01-01T07:53:28;8.07;;;1.75;;
52124;SDS011;38119;52.710;6.398;2023-01-01T07:55:54;8.75;;;1.77;;
52124;SDS011;38119;52.710;6.398;2023-01-01T07:58:20;8.93;;;2.10;;
52124;SDS011;38119;52.710;6.398;2023-01-01T08:00:47;13.02;;;2.42;;
52124;SDS011;38119;52.710;6.398;2023-01-01T08:03:13;6.88;;;1.52;;
52124;SDS011;38119;52.710;6.398;2023-01-01T08:05:39;9.30;;;2.38;;
52124;SDS011;38119;52.710;6.398;2023-01-01T08:08:05;6.88;;;1.90;;
52124;SDS011;38119;52.710;6.398;2023-01-01T08:10:30;9.15;;;1.80;;
52124;SDS011;38119;52.710;6.398;2023-01-01T08:13:03;7.80;;;2.00;;
52124;SDS011;38119;52.710;6.398;2023-01-01T08:15:30;6.60;;;1.83;;
52124;SDS011;38119;52.710;6.398;2023-01-01T08:17:57;7.60;;;1.60;;
52124;SDS011;38119;52.710;6.398;2023-01-01T08:20:23;11.23;;;2.28;;
52124;SDS011;38119;52.710;6.398;2023-01-01T08:22:49;4.85;;;1.80;;
52124;SDS011;38119;52.710;6.398;2023-01-01T08:25:15;10.18;;;2.00;;
52124;SDS011;38119;52.710;6.398;2023-01-01T08:27:40;12.90;;;2.05;;
52124;SDS011;38119;52.710;6.398;2023-01-01T08:30:06;9.43;;;1.73;;
52124;SDS011;38119;52.710;6.398;2023-01-01T08:32:32;9.80;;;1.98;;
52124;SDS011;38119;52.710;6.398;2023-01-01T08:34:58;12.45;;;1.92;;
52124;SDS011;38119;52.710;6.398;2023-01-01T08:37:24;11.90;;;2.10;;
52124;SDS011;38119;52.710;6.398;2023-01-01T08:39:50;8.80;;;1.80;;
52124;SDS011;38119;52.710;6.398;2023-01-01T08:42:16;11.25;;;2.28;;
52124;SDS011;38119;52.710;6.398;2023-01-01T08:44:42;12.30;;;2.50;;
52124;SDS011;38119;52.710;6.398;2023-01-01T08:47:17;11.65;;;2.30;;
52124;SDS011;38119;52.710;6.398;2023-01-01T08:49:45;9.52;;;1.67;;
52124;SDS011;38119;52.710;6.398;2023-01-01T08:52:11;6.68;;;1.70;;
52124;SDS011;38119;52.710;6.398;2023-01-01T08:54:37;8.52;;;2.28;;
52124;SDS011;38119;52.710;6.398;2023-01-01T08:57:02;8.65;;;2.03;;
52124;SDS011;38119;52.710;6.398;2023-01-01T08:59:28;13.02;;;2.30;;
52124;SDS011;38119;52.710;6.398;2023-01-01T09:01:54;10.85;;;2.00;;
52124;SDS011;38119;52.710;6.398;2023-01-01T09:04:20;11.15;;;1.95;;
52124;SDS011;38119;52.710;6.398;2023-01-01T09:06:45;11.93;;;1.83;;
52124;SDS011;38119;52.710;6.398;2023-01-01T09:09:11;10.85;;;2.05;;
52124;SDS011;38119;52.710;6.398;2023-01-01T09:11:37;10.07;;;2.20;;
52124;SDS011;38119;52.710;6.398;2023-01-01T09:14:02;11.45;;;2.05;;
52124;SDS011;38119;52.710;6.398;2023-01-01T09:16:28;11.35;;;2.13;;
52124;SDS011;38119;52.710;6.398;2023-01-01T09:18:54;10.18;;;1.90;;
52124;SDS011;38119;52.710;6.398;2023-01-01T09:21:19;9.18;;;1.90;;
52124;SDS011;38119;52.710;6.398;2023-01-01T09:23:45;8.77;;;1.83;;
52124;SDS011;38119;52.710;6.398;2023-01-01T09:26:11;13.18;;;1.90;;
52124;SDS011;38119;52.710;6.398;2023-01-01T09:28:36;10.43;;;1.80;;
52124;SDS011;38119;52.710;6.398;2023-01-01T09:31:02;9.95;;;2.17;;
52124;SDS011;38119;52.710;6.398;2023-01-01T09:33:30;13.60;;;2.00;;
52124;SDS011;38119;52.710;6.398;2023-01-01T09:36:12;12.18;;;2.05;;
52124;SDS011;38119;52.710;6.398;2023-01-01T09:38:39;11.05;;;1.90;;
52124;SDS011;38119;52.710;6.398;2023-01-01T09:46:51;11.98;;;2.13;;
52124;SDS011;38119;52.710;6.398;2023-01-01T09:49:21;9.90;;;1.98;;
52124;SDS011;38119;52.710;6.398;2023-01-01T09:52:02;9.63;;;2.28;;
52124;SDS011;38119;52.710;6.398;2023-01-01T09:54:33;8.63;;;1.90;;
52124;SDS011;38119;52.710;6.398;2023-01-01T09:57:04;9.05;;;1.90;;
52124;SDS011;38119;52.710;6.398;2023-01-01T09:59:34;9.25;;;2.03;;
52124;SDS011;38119;52.710;6.398;2023-01-01T10:04:58;9.80;;;2.17;;
52124;SDS011;38119;52.710;6.398;2023-01-01T10:07:28;8.45;;;1.85;;
52124;SDS011;38119;52.710;6.398;2023-01-01T10:12:58;15.82;;;2.35;;
52124;SDS011;38119;52.710;6.398;2023-01-01T10:15:36;7.55;;;1.88;;
52124;SDS011;38119;52.710;6.398;2023-01-01T10:18:05;9.27;;;1.70;;
52124;SDS011;38119;52.710;6.398;2023-01-01T10:20:41;7.25;;;2.13;;
52124;SDS011;38119;52.710;6.398;2023-01-01T10:23:17;10.45;;;2.40;;
52124;SDS011;38119;52.710;6.398;2023-01-01T10:25:46;9.30;;;2.00;;
52124;SDS011;38119;52.710;6.398;2023-01-01T10:28:22;12.60;;;2.35;;
52124;SDS011;38119;52.710;6.398;2023-01-01T10:30:54;10.73;;;2.03;;
52124;SDS011;38119;52.710;6.398;2023-01-01T10:33:38;12.07;;;2.20;;
52124;SDS011;38119;52.710;6.398;2023-01-01T10:36:03;9.10;;;1.98;;
52124;SDS011;38119;52.710;6.398;2023-01-01T10:38:29;7.18;;;1.90;;
52124;SDS011;38119;52.710;6.398;2023-01-01T10:40:59;10.13;;;2.17;;
52124;SDS011;38119;52.710;6.398;2023-01-01T10:43:30;9.07;;;1.83;;
52124;SDS011;38119;52.710;6.398;2023-01-01T10:45:56;9.82;;;1.83;;
52124;SDS011;38119;52.710;6.398;2023-01-01T10:48:25;11.57;;;1.70;;
52124;SDS011;38119;52.710;6.398;2023-01-01T10:50:56;12.30;;;2.55;;
52124;SDS011;38119;52.710;6.398;2023-01-01T10:56:20;11.65;;;2.03;;
52124;SDS011;38119;52.710;6.398;2023-01-01T10:58:51;10.63;;;2.33;;
52124;SDS011;38119;52.710;6.398;2023-01-01T11:06:40;6.57;;;1.70;;
52124;SDS011;38119;52.710;6.398;2023-01-01T11:11:54;11.02;;;2.30;;
52124;SDS011;38119;52.710;6.398;2023-01-01T11:16:59;9.23;;;2.15;;
52124;SDS011;38119;52.710;6.398;2023-01-01T11:19:34;10.40;;;2.30;;
52124;SDS011;38119;52.710;6.398;2023-01-01T11:22:05;9.10;;;1.98;;
52124;SDS011;38119;52.710;6.398;2023-01-01T11:24:31;13.65;;;2.40;;
52124;SDS011;38119;52.710;6.398;2023-01-01T11:29:43;10.63;;;1.95;;
52124;SDS011;38119;52.710;6.398;2023-01-01T11:32:08;9.25;;;2.25;;
52124;SDS011;38119;52.710;6.398;2023-01-01T11:34:45;12.90;;;2.33;;
52124;SDS011;38119;52.710;6.398;2023-01-01T11:37:33;10.52;;;2.05;;
52124;SDS011;38119;52.710;6.398;2023-01-01T11:40:04;11.35;;;2.33;;
52124;SDS011;38119;52.710;6.398;2023-01-01T11:42:41;11.93;;;2.10;;
52124;SDS011;38119;52.710;6.398;2023-01-01T11:47:51;9.85;;;2.05;;
52124;SDS011;38119;52.710;6.398;2023-01-01T11:50:31;9.23;;;2.80;;
52124;SDS011;38119;52.710;6.398;2023-01-01T11:55:53;8.10;;;1.92;;
52124;SDS011;38119;52.710;6.398;2023-01-01T11:58:47;10.43;;;2.38;;
52124;SDS011;38119;52.710;6.398;2023-01-01T12:09:53;14.60;;;2.38;;
52124;SDS011;38119;52.710;6.398;2023-01-01T12:12:26;12.73;;;2.30;;
52124;SDS011;38119;52.710;6.398;2023-01-01T12:15:15;12.18;;;2.15;;
52124;SDS011;38119;52.710;6.398;2023-01-01T12:18:32;11.43;;;2.13;;
52124;SDS011;38119;52.710;6.398;2023-01-01T12:20:39;14.77;;;2.17;;
52124;SDS011;38119;52.710;6.398;2023-01-01T12:23:20;14.50;;;2.78;;
52124;SDS011;38119;52.710;6.398;2023-01-01T12:25:48;8.40;;;2.33;;
52124;SDS011;38119;52.710;6.398;2023-01-01T12:40:27;10.43;;;2.17;;
52124;SDS011;38119;52.710;6.398;2023-01-01T12:50:27;13.70;;;3.03;;
52124;SDS011;38119;52.710;6.398;2023-01-01T12:53:19;12.20;;;2.08;;
52124;SDS011;38119;52.710;6.398;2023-01-01T12:56:13;12.70;;;2.47;;
52124;SDS011;38119;52.710;6.398;2023-01-01T12:59:27;10.93;;;2.20;;
52124;SDS011;38119;52.710;6.398;2023-01-01T13:01:32;12.27;;;2.55;;
52124;SDS011;38119;52.710;6.398;2023-01-01T13:04:01;11.55;;;2.50;;
52124;SDS011;38119;52.710;6.398;2023-01-01T13:09:09;17.83;;;3.33;;
52124;SDS011;38119;52.710;6.398;2023-01-01T13:12:00;15.65;;;2.88;;
52124;SDS011;38119;52.710;6.398;2023-01-01T13:14:44;9.25;;;2.35;;
52124;SDS011;38119;52.710;6.398;2023-01-01T13:19:45;12.85;;;2.28;;
52124;SDS011;38119;52.710;6.398;2023-01-01T13:25:04;15.38;;;3.05;;
52124;SDS011;38119;52.710;6.398;2023-01-01T13:44:17;10.00;;;2.50;;
52124;SDS011;38119;52.710;6.398;2023-01-01T13:49:39;12.35;;;2.85;;
52124;SDS011;38119;52.710;6.398;2023-01-01T14:03:19;10.80;;;2.72;;
52124;SDS011;38119;52.710;6.398;2023-01-01T14:05:49;9.52;;;2.60;;
52124;SDS011;38119;52.710;6.398;2023-01-01T14:08:26;14.70;;;3.10;;
52124;SDS011;38119;52.710;6.398;2023-01-01T14:10:55;14.80;;;3.00;;
52124;SDS011;38119;52.710;6.398;2023-01-01T14:13:22;14.07;;;3.35;;
52124;SDS011;38119;52.710;6.398;2023-01-01T14:18:17;17.60;;;3.67;;
52124;SDS011;38119;52.710;6.398;2023-01-01T14:20:46;12.98;;;3.15;;
52124;SDS011;38119;52.710;6.398;2023-01-01T14:23:18;13.00;;;2.35;;
52124;SDS011;38119;52.710;6.398;2023-01-01T14:25:55;10.20;;;2.97;;
52124;SDS011;38119;52.710;6.398;2023-01-01T14:28:26;13.95;;;3.38;;
52124;SDS011;38119;52.710;6.398;2023-01-01T14:30:53;11.23;;;2.50;;
52124;SDS011;38119;52.710;6.398;2023-01-01T14:33:25;11.98;;;2.80;;
52124;SDS011;38119;52.710;6.398;2023-01-01T14:35:53;17.15;;;3.10;;
52124;SDS011;38119;52.710;6.398;2023-01-01T14:38:27;14.15;;;2.97;;
52124;SDS011;38119;52.710;6.398;2023-01-01T14:43:45;15.70;;;3.00;;
52124;SDS011;38119;52.710;6.398;2023-01-01T14:46:17;12.15;;;2.70;;
52124;SDS011;38119;52.710;6.398;2023-01-01T14:48:45;15.48;;;3.28;;
52124;SDS011;38119;52.710;6.398;2023-01-01T14:51:23;12.07;;;3.00;;
52124;SDS011;38119;52.710;6.398;2023-01-01T14:53:51;15.82;;;2.85;;
52124;SDS011;38119;52.710;6.398;2023-01-01T14:58:53;11.90;;;2.90;;
52124;SDS011;38119;52.710;6.398;2023-01-01T15:01:22;11.98;;;2.97;;
52124;SDS011;38119;52.710;6.398;2023-01-01T15:06:22;13.45;;;2.78;;
52124;SDS011;38119;52.710;6.398;2023-01-01T15:08:49;17.42;;;3.00;;
52124;SDS011;38119;52.710;6.398;2023-01-01T15:11:18;16.20;;;3.00;;
52124;SDS011;38119;52.710;6.398;2023-01-01T15:13:51;18.70;;;2.95;;
52124;SDS011;38119;52.710;6.398;2023-01-01T15:16:25;17.88;;;3.38;;
52124;SDS011;38119;52.710;6.398;2023-01-01T15:18:51;15.02;;;2.60;;
52124;SDS011;38119;52.710;6.398;2023-01-01T15:24:00;17.70;;;3.17;;
52124;SDS011;38119;52.710;6.398;2023-01-01T15:26:30;15.13;;;3.00;;
52124;SDS011;38119;52.710;6.398;2023-01-01T15:29:19;19.50;;;3.95;;
52124;SDS011;38119;52.710;6.398;2023-01-01T15:31:55;16.05;;;2.95;;
52124;SDS011;38119;52.710;6.398;2023-01-01T15:36:55;14.48;;;3.17;;
52124;SDS011;38119;52.710;6.398;2023-01-01T15:39:29;12.90;;;2.70;;
52124;SDS011;38119;52.710;6.398;2023-01-01T15:41:55;13.38;;;2.80;;
52124;SDS011;38119;52.710;6.398;2023-01-01T15:44:25;16.25;;;3.50;;
52124;SDS011;38119;52.710;6.398;2023-01-01T15:47:09;18.17;;;2.70;;
52124;SDS011;38119;52.710;6.398;2023-01-01T15:49:37;12.18;;;2.95;;
52124;SDS011;38119;52.710;6.398;2023-01-01T15:52:04;17.60;;;3.30;;
52124;SDS011;38119;52.710;6.398;2023-01-01T15:54:38;13.85;;;2.72;;
52124;SDS011;38119;52.710;6.398;2023-01-01T15:57:14;14.25;;;2.80;;
52124;SDS011;38119;52.710;6.398;2023-01-01T15:59:44;15.88;;;3.20;;
52124;SDS011;38119;52.710;6.398;2023-01-01T16:04:40;14.20;;;3.20;;
52124;SDS011;38119;52.710;6.398;2023-01-01T16:07:14;14.18;;;3.80;;
52124;SDS011;38119;52.710;6.398;2023-01-01T16:09:50;14.68;;;4.07;;
52124;SDS011;38119;52.710;6.398;2023-01-01T16:12:17;15.18;;;4.32;;
52124;SDS011;38119;52.710;6.398;2023-01-01T16:14:43;18.15;;;4.18;;
52124;SDS011;38119;52.710;6.398;2023-01-01T16:17:12;17.85;;;3.90;;
52124;SDS011;38119;52.710;6.398;2023-01-01T16:19:40;10.27;;;3.35;;
52124;SDS011;38119;52.710;6.398;2023-01-01T16:22:06;16.58;;;3.30;;
52124;SDS011;38119;52.710;6.398;2023-01-01T16:24:34;17.55;;;3.47;;
52124;SDS011;38119;52.710;6.398;2023-01-01T16:27:01;12.90;;;3.03;;
52124;SDS011;38119;52.710;6.398;2023-01-01T16:29:26;17.20;;;3.63;;
52124;SDS011;38119;52.710;6.398;2023-01-01T16:31:52;18.13;;;4.00;;
52124;SDS011;38119;52.710;6.398;2023-01-01T16:34:17;9.90;;;3.42;;
52124;SDS011;38119;52.710;6.398;2023-01-01T16:36:43;13.52;;;3.63;;
52124;SDS011;38119;52.710;6.398;2023-01-01T16:39:09;16.73;;;4.13;;
52124;SDS011;38119;52.710;6.398;2023-01-01T16:41:35;11.07;;;4.00;;
52124;SDS011;38119;52.710;6.398;2023-01-01T16:44:03;13.13;;;3.95;;
52124;SDS011;38119;52.710;6.398;2023-01-01T16:46:29;15.57;;;3.97;;
52124;SDS011;38119;52.710;6.398;2023-01-01T16:48:54;14.93;;;4.15;;
52124;SDS011;38119;52.710;6.398;2023-01-01T16:51:24;13.68;;;3.55;;
52124;SDS011;38119;52.710;6.398;2023-01-01T16:53:52;13.27;;;3.83;;
52124;SDS011;38119;52.710;6.398;2023-01-01T16:56:18;14.73;;;4.65;;
52124;SDS011;38119;52.710;6.398;2023-01-01T16:58:44;15.35;;;4.05;;
52124;SDS011;38119;52.710;6.398;2023-01-01T17:01:10;12.85;;;4.00;;
52124;SDS011;38119;52.710;6.398;2023-01-01T17:03:35;15.25;;;3.92;;
52124;SDS011;38119;52.710;6.398;2023-01-01T17:06:05;11.57;;;3.60;;
52124;SDS011;38119;52.710;6.398;2023-01-01T17:08:32;14.77;;;4.10;;
52124;SDS011;38119;52.710;6.398;2023-01-01T17:13:43;11.50;;;3.10;;
52124;SDS011;38119;52.710;6.398;2023-01-01T17:16:10;16.88;;;3.65;;
52124;SDS011;38119;52.710;6.398;2023-01-01T17:18:36;13.95;;;3.90;;
52124;SDS011;38119;52.710;6.398;2023-01-01T17:21:06;13.98;;;3.92;;
52124;SDS011;38119;52.710;6.398;2023-01-01T17:23:37;10.30;;;3.50;;